sensor_id;sensor_type;location;lat;lon;timestamp;P1;durP1;ratioP1;P2;durP2;ratioP2
34278;SDS011;20538;51.528;9.942;2022-11-21T00:01:38;33.33;;;15.82;;
34278;SDS011;20538;51.528;9.942;2022-11-21T00:03:56;32.15;;;15.82;;
34278;SDS011;20538;51.528;9.942;2022-11-21T00:06:22;40.65;;;16.25;;
34278;SDS011;20538;51.528;9.942;2022-11-21T00:08:48;39.88;;;16.20;;
34278;SDS011;20538;51.528;9.942;2022-11-21T00:11:14;35.13;;;16.58;;
34278;SDS011;20538;51.528;9.942;2022-11-21T00:13:40;31.02;;;15.00;;
34278;SDS011;20538;51.528;9.942;2022-11-21T00:16:10;32.88;;;16.25;;
34278;SDS011;20538;51.528;9.942;2022-11-21T00:18:38;37.17;;;16.45;;
34278;SDS011;20538;51.528;9.942;2022-11-21T00:21:06;36.42;;;17.70;;
34278;SDS011;20538;51.528;9.942;2022-11-21T00:23:34;31.20;;;15.07;;
34278;SDS011;20538;51.528;9.942;2022-11-21T00:26:06;33.75;;;16.45;;
34278;SDS011;20538;51.528;9.942;2022-11-21T00:28:33;31.70;;;15.32;;
34278;SDS011;20538;51.528;9.942;2022-11-21T00:31:00;34.22;;;16.38;;
34278;SDS011;20538;51.528;9.942;2022-11-21T00:33:26;33.80;;;16.13;;
34278;SDS011;20538;51.528;9.942;2022-11-21T00:35:51;33.33;;;15.88;;
34278;SDS011;20538;51.528;9.942;2022-11-21T00:38:17;28.83;;;15.00;;
34278;SDS011;20538;51.528;9.942;2022-11-21T00:40:43;28.13;;;14.57;;
34278;SDS011;20538;51.528;9.942;2022-11-21T00:43:09;30.95;;;14.68;;
34278;SDS011;20538;51.528;9.942;2022-11-21T00:45:35;33.42;;;15.05;;
34278;SDS011;20538;51.528;9.942;2022-11-21T00:48:01;31.27;;;14.13;;
34278;SDS011;20538;51.528;9.942;2022-11-21T00:50:26;27.88;;;13.20;;
34278;SDS011;20538;51.528;9.942;2022-11-21T00:52:55;26.65;;;12.75;;
34278;SDS011;20538;51.528;9.942;2022-11-21T00:55:22;26.08;;;12.68;;
34278;SDS011;20538;51.528;9.942;2022-11-21T00:57:49;22.73;;;12.02;;
34278;SDS011;20538;51.528;9.942;2022-11-21T01:00:15;23.45;;;11.52;;
34278;SDS011;20538;51.528;9.942;2022-11-21T01:02:41;27.55;;;12.48;;
34278;SDS011;20538;51.528;9.942;2022-11-21T01:05:07;22.38;;;10.65;;
34278;SDS011;20538;51.528;9.942;2022-11-21T01:07:33;28.60;;;13.68;;
34278;SDS011;20538;51.528;9.942;2022-11-21T01:09:58;25.30;;;12.32;;
34278;SDS011;20538;51.528;9.942;2022-11-21T01:12:24;26.40;;;13.23;;
34278;SDS011;20538;51.528;9.942;2022-11-21T01:14:50;26.40;;;12.52;;
34278;SDS011;20538;51.528;9.942;2022-11-21T01:17:15;29.15;;;13.52;;
34278;SDS011;20538;51.528;9.942;2022-11-21T01:19:41;28.83;;;13.18;;
34278;SDS011;20538;51.528;9.942;2022-11-21T01:22:07;35.78;;;15.63;;
34278;SDS011;20538;51.528;9.942;2022-11-21T01:24:32;33.15;;;15.55;;
34278;SDS011;20538;51.528;9.942;2022-11-21T01:26:58;38.03;;;15.13;;
34278;SDS011;20538;51.528;9.942;2022-11-21T01:29:24;37.28;;;15.63;;
34278;SDS011;20538;51.528;9.942;2022-11-21T01:31:49;41.13;;;17.92;;
34278;SDS011;20538;51.528;9.942;2022-11-21T01:34:15;39.08;;;16.48;;
34278;SDS011;20538;51.528;9.942;2022-11-21T01:36:42;39.53;;;17.05;;
34278;SDS011;20538;51.528;9.942;2022-11-21T01:39:09;39.28;;;17.35;;
34278;SDS011;20538;51.528;9.942;2022-11-21T01:41:39;40.35;;;16.30;;
34278;SDS011;20538;51.528;9.942;2022-11-21T01:46:44;38.30;;;16.98;;
34278;SDS011;20538;51.528;9.942;2022-11-21T01:49:11;35.70;;;14.27;;
34278;SDS011;20538;51.528;9.942;2022-11-21T01:51:52;35.53;;;15.65;;
34278;SDS011;20538;51.528;9.942;2022-11-21T01:57:38;27.73;;;12.10;;
34278;SDS011;20538;51.528;9.942;2022-11-21T02:00:07;31.40;;;14.48;;
34278;SDS011;20538;51.528;9.942;2022-11-21T02:02:45;32.42;;;14.57;;
34278;SDS011;20538;51.528;9.942;2022-11-21T02:07:42;32.92;;;14.90;;
34278;SDS011;20538;51.528;9.942;2022-11-21T02:10:09;27.73;;;13.35;;
34278;SDS011;20538;51.528;9.942;2022-11-21T02:12:38;28.13;;;13.23;;
34278;SDS011;20538;51.528;9.942;2022-11-21T02:15:09;29.58;;;13.43;;
34278;SDS011;20538;51.528;9.942;2022-11-21T02:17:36;31.90;;;14.30;;
34278;SDS011;20538;51.528;9.942;2022-11-21T02:20:05;25.85;;;11.77;;
34278;SDS011;20538;51.528;9.942;2022-11-21T02:27:58;22.48;;;10.65;;
34278;SDS011;20538;51.528;9.942;2022-11-21T02:30:27;19.65;;;8.88;;
34278;SDS011;20538;51.528;9.942;2022-11-21T02:32:55;21.05;;;9.45;;
34278;SDS011;20538;51.528;9.942;2022-11-21T02:35:21;15.82;;;8.27;;
34278;SDS011;20538;51.528;9.942;2022-11-21T02:37:49;18.05;;;9.23;;
34278;SDS011;20538;51.528;9.942;2022-11-21T02:40:38;17.17;;;9.27;;
34278;SDS011;20538;51.528;9.942;2022-11-21T02:43:24;17.98;;;8.88;;
34278;SDS011;20538;51.528;9.942;2022-11-21T02:45:55;20.27;;;9.60;;
34278;SDS011;20538;51.528;9.942;2022-11-21T02:48:23;18.92;;;9.35;;
34278;SDS011;20538;51.528;9.942;2022-11-21T02:50:49;18.23;;;9.02;;
34278;SDS011;20538;51.528;9.942;2022-11-21T02:53:15;19.20;;;10.07;;
34278;SDS011;20538;51.528;9.942;2022-11-21T02:55:43;18.75;;;8.60;;
34278;SDS011;20538;51.528;9.942;2022-11-21T02:58:09;18.40;;;8.98;;
34278;SDS011;20538;51.528;9.942;2022-11-21T03:00:35;16.10;;;7.28;;
34278;SDS011;20538;51.528;9.942;2022-11-21T03:03:02;16.95;;;8.57;;
34278;SDS011;20538;51.528;9.942;2022-11-21T03:05:29;20.55;;;10.73;;
34278;SDS011;20538;51.528;9.942;2022-11-21T03:07:55;19.15;;;9.52;;
34278;SDS011;20538;51.528;9.942;2022-11-21T03:10:21;25.50;;;11.45;;
34278;SDS011;20538;51.528;9.942;2022-11-21T03:12:46;18.52;;;10.25;;
34278;SDS011;20538;51.528;9.942;2022-11-21T03:15:12;18.10;;;9.57;;
34278;SDS011;20538;51.528;9.942;2022-11-21T03:17:39;18.38;;;9.02;;
34278;SDS011;20538;51.528;9.942;2022-11-21T03:20:06;18.02;;;9.98;;
34278;SDS011;20538;51.528;9.942;2022-11-21T03:22:32;17.88;;;10.18;;
34278;SDS011;20538;51.528;9.942;2022-11-21T03:24:58;22.48;;;11.43;;
34278;SDS011;20538;51.528;9.942;2022-11-21T03:27:24;21.02;;;10.77;;
34278;SDS011;20538;51.528;9.942;2022-11-21T03:29:50;20.45;;;10.48;;
34278;SDS011;20538;51.528;9.942;2022-11-21T03:32:15;22.45;;;10.30;;
34278;SDS011;20538;51.528;9.942;2022-11-21T03:34:41;18.08;;;9.65;;
34278;SDS011;20538;51.528;9.942;2022-11-21T03:37:06;19.13;;;10.10;;
34278;SDS011;20538;51.528;9.942;2022-11-21T03:39:32;23.48;;;11.23;;
34278;SDS011;20538;51.528;9.942;2022-11-21T03:41:58;16.08;;;8.07;;
34278;SDS011;20538;51.528;9.942;2022-11-21T03:44:23;16.58;;;9.23;;
34278;SDS011;20538;51.528;9.942;2022-11-21T03:46:49;18.33;;;9.55;;
34278;SDS011;20538;51.528;9.942;2022-11-21T03:49:15;18.17;;;9.13;;
34278;SDS011;20538;51.528;9.942;2022-11-21T03:51:41;15.52;;;9.10;;
34278;SDS011;20538;51.528;9.942;2022-11-21T03:54:08;22.17;;;10.90;;
34278;SDS011;20538;51.528;9.942;2022-11-21T03:56:34;22.63;;;10.45;;
34278;SDS011;20538;51.528;9.942;2022-11-21T03:59:01;20.35;;;10.50;;
34278;SDS011;20538;51.528;9.942;2022-11-21T04:01:27;19.13;;;9.52;;
34278;SDS011;20538;51.528;9.942;2022-11-21T04:03:52;21.00;;;11.20;;
34278;SDS011;20538;51.528;9.942;2022-11-21T04:06:19;22.67;;;10.93;;
34278;SDS011;20538;51.528;9.942;2022-11-21T04:08:47;20.13;;;11.07;;
34278;SDS011;20538;51.528;9.942;2022-11-21T04:11:13;20.42;;;10.27;;
34278;SDS011;20538;51.528;9.942;2022-11-21T04:13:39;17.50;;;9.48;;
34278;SDS011;20538;51.528;9.942;2022-11-21T04:16:05;25.50;;;10.02;;
34278;SDS011;20538;51.528;9.942;2022-11-21T04:18:30;20.75;;;10.68;;
34278;SDS011;20538;51.528;9.942;2022-11-21T04:20:58;26.88;;;10.68;;
34278;SDS011;20538;51.528;9.942;2022-11-21T04:26:10;21.60;;;10.18;;
34278;SDS011;20538;51.528;9.942;2022-11-21T04:28:35;19.67;;;10.88;;
34278;SDS011;20538;51.528;9.942;2022-11-21T04:31:02;19.58;;;10.40;;
34278;SDS011;20538;51.528;9.942;2022-11-21T04:33:28;25.52;;;11.63;;
34278;SDS011;20538;51.528;9.942;2022-11-21T04:35:54;19.80;;;10.00;;
34278;SDS011;20538;51.528;9.942;2022-11-21T04:38:19;22.48;;;11.13;;
34278;SDS011;20538;51.528;9.942;2022-11-21T04:40:45;20.95;;;10.35;;
34278;SDS011;20538;51.528;9.942;2022-11-21T04:43:11;23.35;;;11.13;;
34278;SDS011;20538;51.528;9.942;2022-11-21T04:45:36;25.92;;;11.80;;
34278;SDS011;20538;51.528;9.942;2022-11-21T04:48:02;22.13;;;10.15;;
34278;SDS011;20538;51.528;9.942;2022-11-21T04:50:28;22.05;;;11.57;;
34278;SDS011;20538;51.528;9.942;2022-11-21T04:52:54;19.50;;;10.23;;
34278;SDS011;20538;51.528;9.942;2022-11-21T04:55:22;21.85;;;11.07;;
34278;SDS011;20538;51.528;9.942;2022-11-21T04:57:50;23.38;;;11.15;;
34278;SDS011;20538;51.528;9.942;2022-11-21T05:00:16;20.38;;;10.45;;
34278;SDS011;20538;51.528;9.942;2022-11-21T05:02:42;25.02;;;10.57;;
34278;SDS011;20538;51.528;9.942;2022-11-21T05:05:09;23.83;;;10.57;;
34278;SDS011;20538;51.528;9.942;2022-11-21T05:07:35;18.90;;;10.20;;
34278;SDS011;20538;51.528;9.942;2022-11-21T05:10:01;18.45;;;9.95;;
34278;SDS011;20538;51.528;9.942;2022-11-21T05:12:27;22.27;;;11.05;;
34278;SDS011;20538;51.528;9.942;2022-11-21T05:15:11;24.50;;;11.23;;
34278;SDS011;20538;51.528;9.942;2022-11-21T05:17:37;20.80;;;10.65;;
34278;SDS011;20538;51.528;9.942;2022-11-21T05:20:02;20.77;;;11.30;;
34278;SDS011;20538;51.528;9.942;2022-11-21T05:22:28;23.50;;;11.10;;
34278;SDS011;20538;51.528;9.942;2022-11-21T05:24:54;21.40;;;11.65;;
34278;SDS011;20538;51.528;9.942;2022-11-21T05:27:20;22.40;;;11.27;;
34278;SDS011;20538;51.528;9.942;2022-11-21T05:29:45;22.75;;;11.48;;
34278;SDS011;20538;51.528;9.942;2022-11-21T05:32:11;20.25;;;11.82;;
34278;SDS011;20538;51.528;9.942;2022-11-21T05:34:37;22.05;;;11.77;;
34278;SDS011;20538;51.528;9.942;2022-11-21T05:37:02;21.77;;;11.18;;
34278;SDS011;20538;51.528;9.942;2022-11-21T05:39:28;25.50;;;12.00;;
34278;SDS011;20538;51.528;9.942;2022-11-21T05:41:54;24.70;;;12.30;;
34278;SDS011;20538;51.528;9.942;2022-11-21T05:44:20;21.77;;;11.52;;
34278;SDS011;20538;51.528;9.942;2022-11-21T05:46:45;23.73;;;12.38;;
34278;SDS011;20538;51.528;9.942;2022-11-21T05:49:14;20.75;;;10.60;;
34278;SDS011;20538;51.528;9.942;2022-11-21T05:51:40;22.40;;;11.15;;
34278;SDS011;20538;51.528;9.942;2022-11-21T05:54:05;20.25;;;11.02;;
34278;SDS011;20538;51.528;9.942;2022-11-21T05:56:31;22.63;;;11.23;;
34278;SDS011;20538;51.528;9.942;2022-11-21T05:58:57;20.65;;;10.57;;
34278;SDS011;20538;51.528;9.942;2022-11-21T06:01:23;19.38;;;11.15;;
34278;SDS011;20538;51.528;9.942;2022-11-21T06:04:08;19.70;;;10.30;;
34278;SDS011;20538;51.528;9.942;2022-11-21T06:06:34;22.17;;;10.73;;
34278;SDS011;20538;51.528;9.942;2022-11-21T06:09:01;20.85;;;10.38;;
34278;SDS011;20538;51.528;9.942;2022-11-21T06:11:27;14.48;;;8.15;;
34278;SDS011;20538;51.528;9.942;2022-11-21T06:13:53;22.13;;;9.95;;
34278;SDS011;20538;51.528;9.942;2022-11-21T06:16:19;17.92;;;9.48;;
34278;SDS011;20538;51.528;9.942;2022-11-21T06:18:46;19.35;;;10.10;;
34278;SDS011;20538;51.528;9.942;2022-11-21T06:21:14;16.13;;;8.82;;
34278;SDS011;20538;51.528;9.942;2022-11-21T06:23:41;16.88;;;9.10;;
34278;SDS011;20538;51.528;9.942;2022-11-21T06:26:10;15.05;;;9.07;;
34278;SDS011;20538;51.528;9.942;2022-11-21T06:28:39;17.58;;;9.50;;
34278;SDS011;20538;51.528;9.942;2022-11-21T06:31:09;17.13;;;9.07;;
34278;SDS011;20538;51.528;9.942;2022-11-21T06:33:45;14.40;;;8.80;;
34278;SDS011;20538;51.528;9.942;2022-11-21T06:36:12;17.58;;;8.93;;
34278;SDS011;20538;51.528;9.942;2022-11-21T06:38:39;16.73;;;9.27;;
34278;SDS011;20538;51.528;9.942;2022-11-21T06:41:09;18.50;;;9.38;;
34278;SDS011;20538;51.528;9.942;2022-11-21T06:43:40;21.38;;;10.07;;
34278;SDS011;20538;51.528;9.942;2022-11-21T06:46:06;19.08;;;10.00;;
34278;SDS011;20538;51.528;9.942;2022-11-21T06:48:32;21.02;;;10.65;;
34278;SDS011;20538;51.528;9.942;2022-11-21T06:51:18;23.30;;;11.07;;
34278;SDS011;20538;51.528;9.942;2022-11-21T06:53:46;18.70;;;9.98;;
34278;SDS011;20538;51.528;9.942;2022-11-21T06:56:19;20.25;;;10.73;;
34278;SDS011;20538;51.528;9.942;2022-11-21T06:58:45;22.98;;;11.35;;
34278;SDS011;20538;51.528;9.942;2022-11-21T07:01:11;19.95;;;11.05;;
34278;SDS011;20538;51.528;9.942;2022-11-21T07:03:37;21.65;;;11.32;;
34278;SDS011;20538;51.528;9.942;2022-11-21T07:06:03;18.55;;;10.63;;
34278;SDS011;20538;51.528;9.942;2022-11-21T07:08:30;24.48;;;11.60;;
34278;SDS011;20538;51.528;9.942;2022-11-21T07:10:59;21.88;;;11.90;;
34278;SDS011;20538;51.528;9.942;2022-11-21T07:13:29;25.92;;;13.00;;
34278;SDS011;20538;51.528;9.942;2022-11-21T07:15:59;27.80;;;13.60;;
34278;SDS011;20538;51.528;9.942;2022-11-21T07:18:29;24.35;;;12.68;;
34278;SDS011;20538;51.528;9.942;2022-11-21T07:20:58;19.75;;;10.32;;
34278;SDS011;20538;51.528;9.942;2022-11-21T07:23:25;20.48;;;10.73;;
34278;SDS011;20538;51.528;9.942;2022-11-21T07:25:51;25.45;;;12.32;;
34278;SDS011;20538;51.528;9.942;2022-11-21T07:28:16;22.77;;;11.95;;
34278;SDS011;20538;51.528;9.942;2022-11-21T07:30:42;23.42;;;12.02;;
34278;SDS011;20538;51.528;9.942;2022-11-21T07:33:07;25.00;;;12.13;;
34278;SDS011;20538;51.528;9.942;2022-11-21T07:35:33;26.02;;;12.30;;
34278;SDS011;20538;51.528;9.942;2022-11-21T07:38:00;21.65;;;11.45;;
34278;SDS011;20538;51.528;9.942;2022-11-21T07:40:26;22.67;;;11.30;;
34278;SDS011;20538;51.528;9.942;2022-11-21T07:42:53;18.20;;;10.95;;
34278;SDS011;20538;51.528;9.942;2022-11-21T07:45:24;25.95;;;13.00;;
34278;SDS011;20538;51.528;9.942;2022-11-21T07:47:55;24.17;;;11.82;;
34278;SDS011;20538;51.528;9.942;2022-11-21T07:50:22;23.17;;;12.65;;
34278;SDS011;20538;51.528;9.942;2022-11-21T07:52:48;23.08;;;12.15;;
34278;SDS011;20538;51.528;9.942;2022-11-21T07:55:13;24.50;;;10.43;;
34278;SDS011;20538;51.528;9.942;2022-11-21T07:57:39;16.60;;;9.55;;
34278;SDS011;20538;51.528;9.942;2022-11-21T08:00:04;19.35;;;10.38;;
34278;SDS011;20538;51.528;9.942;2022-11-21T08:02:31;21.42;;;10.90;;
34278;SDS011;20538;51.528;9.942;2022-11-21T08:04:56;22.90;;;11.88;;
34278;SDS011;20538;51.528;9.942;2022-11-21T08:07:22;25.85;;;12.10;;
34278;SDS011;20538;51.528;9.942;2022-11-21T08:09:48;23.20;;;11.27;;
34278;SDS011;20538;51.528;9.942;2022-11-21T08:12:14;30.05;;;11.25;;
34278;SDS011;20538;51.528;9.942;2022-11-21T08:14:40;24.73;;;11.88;;
34278;SDS011;20538;51.528;9.942;2022-11-21T08:17:05;21.67;;;11.23;;
34278;SDS011;20538;51.528;9.942;2022-11-21T08:19:31;20.00;;;11.20;;
34278;SDS011;20538;51.528;9.942;2022-11-21T08:21:57;15.57;;;8.73;;
34278;SDS011;20538;51.528;9.942;2022-11-21T08:24:23;17.48;;;8.93;;
34278;SDS011;20538;51.528;9.942;2022-11-21T08:26:49;19.10;;;10.32;;
34278;SDS011;20538;51.528;9.942;2022-11-21T08:29:15;15.38;;;9.00;;
34278;SDS011;20538;51.528;9.942;2022-11-21T08:31:41;19.35;;;9.07;;
34278;SDS011;20538;51.528;9.942;2022-11-21T08:34:07;17.65;;;9.60;;
34278;SDS011;20538;51.528;9.942;2022-11-21T08:36:33;17.48;;;7.53;;
34278;SDS011;20538;51.528;9.942;2022-11-21T08:38:59;14.63;;;7.65;;
34278;SDS011;20538;51.528;9.942;2022-11-21T08:41:25;13.77;;;7.80;;
34278;SDS011;20538;51.528;9.942;2022-11-21T08:44:09;12.80;;;7.70;;
34278;SDS011;20538;51.528;9.942;2022-11-21T08:46:35;14.02;;;7.32;;
34278;SDS011;20538;51.528;9.942;2022-11-21T08:49:07;13.35;;;7.43;;
34278;SDS011;20538;51.528;9.942;2022-11-21T08:51:34;14.18;;;8.35;;
34278;SDS011;20538;51.528;9.942;2022-11-21T08:54:00;18.63;;;9.93;;
34278;SDS011;20538;51.528;9.942;2022-11-21T08:56:26;17.55;;;9.02;;
34278;SDS011;20538;51.528;9.942;2022-11-21T08:58:52;20.10;;;10.23;;
34278;SDS011;20538;51.528;9.942;2022-11-21T09:01:18;15.60;;;8.73;;
34278;SDS011;20538;51.528;9.942;2022-11-21T09:03:44;15.77;;;9.05;;
34278;SDS011;20538;51.528;9.942;2022-11-21T09:06:10;15.18;;;8.77;;
34278;SDS011;20538;51.528;9.942;2022-11-21T09:08:37;18.13;;;9.00;;
34278;SDS011;20538;51.528;9.942;2022-11-21T09:11:06;18.20;;;8.85;;
34278;SDS011;20538;51.528;9.942;2022-11-21T09:13:33;14.25;;;7.95;;
34278;SDS011;20538;51.528;9.942;2022-11-21T09:15:59;15.43;;;9.57;;
34278;SDS011;20538;51.528;9.942;2022-11-21T09:18:44;19.17;;;9.63;;
34278;SDS011;20538;51.528;9.942;2022-11-21T09:21:16;17.15;;;10.40;;
34278;SDS011;20538;51.528;9.942;2022-11-21T09:23:43;14.07;;;9.25;;
34278;SDS011;20538;51.528;9.942;2022-11-21T09:26:09;17.40;;;9.63;;
34278;SDS011;20538;51.528;9.942;2022-11-21T09:28:35;18.13;;;10.52;;
34278;SDS011;20538;51.528;9.942;2022-11-21T09:31:01;22.25;;;11.82;;
34278;SDS011;20538;51.528;9.942;2022-11-21T09:33:27;17.27;;;10.02;;
34278;SDS011;20538;51.528;9.942;2022-11-21T09:35:53;16.52;;;10.32;;
34278;SDS011;20538;51.528;9.942;2022-11-21T09:38:19;16.42;;;9.68;;
34278;SDS011;20538;51.528;9.942;2022-11-21T09:40:45;19.05;;;10.98;;
34278;SDS011;20538;51.528;9.942;2022-11-21T09:46:14;15.98;;;8.68;;
34278;SDS011;20538;51.528;9.942;2022-11-21T09:53:50;13.85;;;7.90;;
34278;SDS011;20538;51.528;9.942;2022-11-21T09:56:22;17.40;;;9.98;;
34278;SDS011;20538;51.528;9.942;2022-11-21T10:01:30;20.77;;;10.60;;
34278;SDS011;20538;51.528;9.942;2022-11-21T10:03:56;20.63;;;11.13;;
34278;SDS011;20538;51.528;9.942;2022-11-21T10:11:20;15.60;;;8.80;;
34278;SDS011;20538;51.528;9.942;2022-11-21T10:16:57;13.55;;;8.50;;
34278;SDS011;20538;51.528;9.942;2022-11-21T10:19:41;15.40;;;9.02;;
34278;SDS011;20538;51.528;9.942;2022-11-21T10:25:11;15.30;;;8.90;;
34278;SDS011;20538;51.528;9.942;2022-11-21T10:27:55;15.52;;;8.40;;
34278;SDS011;20538;51.528;9.942;2022-11-21T10:30:28;16.88;;;9.98;;
34278;SDS011;20538;51.528;9.942;2022-11-21T10:32:59;17.25;;;10.60;;
34278;SDS011;20538;51.528;9.942;2022-11-21T10:35:30;17.85;;;10.95;;
34278;SDS011;20538;51.528;9.942;2022-11-21T10:38:11;18.20;;;10.55;;
34278;SDS011;20538;51.528;9.942;2022-11-21T10:41:00;18.75;;;10.52;;
34278;SDS011;20538;51.528;9.942;2022-11-21T10:43:34;17.13;;;9.27;;
34278;SDS011;20538;51.528;9.942;2022-11-21T10:46:23;18.27;;;10.45;;
34278;SDS011;20538;51.528;9.942;2022-11-21T10:48:56;21.52;;;10.90;;
34278;SDS011;20538;51.528;9.942;2022-11-21T10:54:03;15.63;;;9.05;;
34278;SDS011;20538;51.528;9.942;2022-11-21T10:56:47;14.48;;;8.95;;
34278;SDS011;20538;51.528;9.942;2022-11-21T10:59:24;14.10;;;7.93;;
34278;SDS011;20538;51.528;9.942;2022-11-21T11:04:25;14.40;;;8.60;;
34278;SDS011;20538;51.528;9.942;2022-11-21T11:06:52;17.60;;;9.38;;
34278;SDS011;20538;51.528;9.942;2022-11-21T11:12:20;16.10;;;9.55;;
34278;SDS011;20538;51.528;9.942;2022-11-21T11:15:24;15.50;;;9.00;;
34278;SDS011;20538;51.528;9.942;2022-11-21T11:17:52;14.27;;;7.90;;
34278;SDS011;20538;51.528;9.942;2022-11-21T11:25:46;21.33;;;11.05;;
34278;SDS011;20538;51.528;9.942;2022-11-21T11:28:23;15.23;;;9.40;;
34278;SDS011;20538;51.528;9.942;2022-11-21T11:30:59;17.75;;;9.73;;
34278;SDS011;20538;51.528;9.942;2022-11-21T11:33:28;19.83;;;10.38;;
34278;SDS011;20538;51.528;9.942;2022-11-21T11:38:35;21.85;;;10.88;;
34278;SDS011;20538;51.528;9.942;2022-11-21T11:41:02;21.52;;;11.88;;
34278;SDS011;20538;51.528;9.942;2022-11-21T11:52:48;16.60;;;9.38;;
34278;SDS011;20538;51.528;9.942;2022-11-21T11:55:35;17.75;;;10.07;;
34278;SDS011;20538;51.528;9.942;2022-11-21T12:03:45;19.17;;;10.15;;
34278;SDS011;20538;51.528;9.942;2022-11-21T12:06:39;15.35;;;9.43;;
34278;SDS011;20538;51.528;9.942;2022-11-21T12:17:26;18.17;;;10.90;;
34278;SDS011;20538;51.528;9.942;2022-11-21T12:20:12;16.67;;;9.55;;
34278;SDS011;20538;51.528;9.942;2022-11-21T12:22:42;15.35;;;9.35;;
34278;SDS011;20538;51.528;9.942;2022-11-21T12:25:12;19.88;;;11.43;;
34278;SDS011;20538;51.528;9.942;2022-11-21T12:27:41;16.30;;;9.75;;
34278;SDS011;20538;51.528;9.942;2022-11-21T12:47:09;19.77;;;11.25;;
34278;SDS011;20538;51.528;9.942;2022-11-21T12:52:45;14.77;;;9.05;;
34278;SDS011;20538;51.528;9.942;2022-11-21T12:55:35;15.38;;;9.82;;
34278;SDS011;20538;51.528;9.942;2022-11-21T13:01:09;15.98;;;8.95;;
34278;SDS011;20538;51.528;9.942;2022-11-21T13:06:27;17.85;;;10.20;;
34278;SDS011;20538;51.528;9.942;2022-11-21T13:08:55;17.10;;;9.52;;
34278;SDS011;20538;51.528;9.942;2022-11-21T13:14:27;19.15;;;10.75;;
34278;SDS011;20538;51.528;9.942;2022-11-21T13:25:03;18.20;;;9.93;;
34278;SDS011;20538;51.528;9.942;2022-11-21T13:30:44;18.73;;;10.05;;
34278;SDS011;20538;51.528;9.942;2022-11-21T13:38:31;16.67;;;9.13;;
34278;SDS011;20538;51.528;9.942;2022-11-21T13:57:32;22.13;;;11.23;;
34278;SDS011;20538;51.528;9.942;2022-11-21T14:08:22;18.63;;;10.48;;
34278;SDS011;20538;51.528;9.942;2022-11-21T14:10:51;21.10;;;10.50;;
34278;SDS011;20538;51.528;9.942;2022-11-21T14:13:28;25.15;;;12.80;;
34278;SDS011;20538;51.528;9.942;2022-11-21T14:18:23;22.02;;;11.73;;
34278;SDS011;20538;51.528;9.942;2022-11-21T14:20:54;19.70;;;10.65;;
34278;SDS011;20538;51.528;9.942;2022-11-21T14:23:24;21.98;;;11.23;;
34278;SDS011;20538;51.528;9.942;2022-11-21T14:25:56;24.42;;;12.35;;
34278;SDS011;20538;51.528;9.942;2022-11-21T14:28:27;26.63;;;13.95;;
34278;SDS011;20538;51.528;9.942;2022-11-21T14:30:58;25.75;;;12.02;;
34278;SDS011;20538;51.528;9.942;2022-11-21T14:33:35;24.63;;;12.32;;
34278;SDS011;20538;51.528;9.942;2022-11-21T14:38:43;23.10;;;12.10;;
34278;SDS011;20538;51.528;9.942;2022-11-21T14:43:38;26.73;;;12.45;;
34278;SDS011;20538;51.528;9.942;2022-11-21T14:46:11;24.83;;;13.18;;
34278;SDS011;20538;51.528;9.942;2022-11-21T14:48:40;26.38;;;14.10;;
34278;SDS011;20538;51.528;9.942;2022-11-21T14:51:07;23.45;;;12.18;;
34278;SDS011;20538;51.528;9.942;2022-11-21T14:53:38;24.38;;;12.75;;
34278;SDS011;20538;51.528;9.942;2022-11-21T14:56:07;26.83;;;13.90;;
34278;SDS011;20538;51.528;9.942;2022-11-21T14:58:44;26.15;;;13.85;;
34278;SDS011;20538;51.528;9.942;2022-11-21T15:01:31;25.13;;;12.50;;
34278;SDS011;20538;51.528;9.942;2022-11-21T15:06:38;23.80;;;12.88;;
34278;SDS011;20538;51.528;9.942;2022-11-21T15:09:09;18.13;;;10.27;;
34278;SDS011;20538;51.528;9.942;2022-11-21T15:11:37;24.48;;;13.18;;
34278;SDS011;20538;51.528;9.942;2022-11-21T15:14:15;31.40;;;15.10;;
34278;SDS011;20538;51.528;9.942;2022-11-21T15:16:46;33.65;;;17.67;;
34278;SDS011;20538;51.528;9.942;2022-11-21T15:19:21;29.77;;;15.57;;
34278;SDS011;20538;51.528;9.942;2022-11-21T15:21:49;28.48;;;15.75;;
34278;SDS011;20538;51.528;9.942;2022-11-21T15:24:49;33.75;;;17.63;;
34278;SDS011;20538;51.528;9.942;2022-11-21T15:35:26;31.02;;;15.32;;
34278;SDS011;20538;51.528;9.942;2022-11-21T15:38:15;35.15;;;17.45;;
34278;SDS011;20538;51.528;9.942;2022-11-21T15:40:57;32.55;;;16.45;;
34278;SDS011;20538;51.528;9.942;2022-11-21T15:46:16;35.35;;;17.40;;
34278;SDS011;20538;51.528;9.942;2022-11-21T15:48:57;33.50;;;17.10;;
34278;SDS011;20538;51.528;9.942;2022-11-21T15:53:58;35.00;;;16.98;;
34278;SDS011;20538;51.528;9.942;2022-11-21T15:56:23;40.28;;;18.35;;
34278;SDS011;20538;51.528;9.942;2022-11-21T15:58:49;31.50;;;16.33;;
34278;SDS011;20538;51.528;9.942;2022-11-21T16:01:19;32.40;;;15.82;;
34278;SDS011;20538;51.528;9.942;2022-11-21T16:04:00;35.80;;;16.98;;
34278;SDS011;20538;51.528;9.942;2022-11-21T16:06:30;37.50;;;18.17;;
34278;SDS011;20538;51.528;9.942;2022-11-21T16:08:57;32.95;;;16.55;;
34278;SDS011;20538;51.528;9.942;2022-11-21T16:11:23;37.67;;;18.77;;
34278;SDS011;20538;51.528;9.942;2022-11-21T16:13:49;38.38;;;19.45;;
34278;SDS011;20538;51.528;9.942;2022-11-21T16:16:16;36.90;;;17.83;;
34278;SDS011;20538;51.528;9.942;2022-11-21T16:18:43;37.40;;;19.23;;
34278;SDS011;20538;51.528;9.942;2022-11-21T16:21:09;37.65;;;18.25;;
34278;SDS011;20538;51.528;9.942;2022-11-21T16:23:35;37.03;;;19.02;;
34278;SDS011;20538;51.528;9.942;2022-11-21T16:26:01;41.45;;;19.20;;
34278;SDS011;20538;51.528;9.942;2022-11-21T16:28:27;39.05;;;18.63;;
34278;SDS011;20538;51.528;9.942;2022-11-21T16:30:53;32.65;;;16.67;;
34278;SDS011;20538;51.528;9.942;2022-11-21T16:33:19;36.70;;;18.20;;
34278;SDS011;20538;51.528;9.942;2022-11-21T16:35:44;37.42;;;17.27;;
34278;SDS011;20538;51.528;9.942;2022-11-21T16:38:10;39.53;;;18.40;;
34278;SDS011;20538;51.528;9.942;2022-11-21T16:40:39;40.22;;;18.67;;
34278;SDS011;20538;51.528;9.942;2022-11-21T16:43:08;37.90;;;17.13;;
34278;SDS011;20538;51.528;9.942;2022-11-21T16:45:36;41.55;;;18.73;;
34278;SDS011;20538;51.528;9.942;2022-11-21T16:48:03;38.30;;;18.65;;
34278;SDS011;20538;51.528;9.942;2022-11-21T16:50:30;39.35;;;18.95;;
34278;SDS011;20538;51.528;9.942;2022-11-21T16:52:56;38.75;;;19.85;;
34278;SDS011;20538;51.528;9.942;2022-11-21T16:55:22;38.95;;;18.70;;
34278;SDS011;20538;51.528;9.942;2022-11-21T16:57:48;39.05;;;19.77;;
34278;SDS011;20538;51.528;9.942;2022-11-21T17:00:14;37.30;;;18.45;;
34278;SDS011;20538;51.528;9.942;2022-11-21T17:02:40;34.20;;;18.85;;
34278;SDS011;20538;51.528;9.942;2022-11-21T17:05:06;37.15;;;18.38;;
34278;SDS011;20538;51.528;9.942;2022-11-21T17:07:32;37.70;;;19.38;;
34278;SDS011;20538;51.528;9.942;2022-11-21T17:09:58;41.70;;;19.83;;
34278;SDS011;20538;51.528;9.942;2022-11-21T17:12:24;38.53;;;18.83;;
34278;SDS011;20538;51.528;9.942;2022-11-21T17:14:50;38.65;;;19.92;;
34278;SDS011;20538;51.528;9.942;2022-11-21T17:17:19;38.95;;;18.25;;
34278;SDS011;20538;51.528;9.942;2022-11-21T17:19:44;38.47;;;19.38;;
34278;SDS011;20538;51.528;9.942;2022-11-21T17:22:10;41.20;;;19.63;;
34278;SDS011;20538;51.528;9.942;2022-11-21T17:24:35;42.53;;;20.48;;
34278;SDS011;20538;51.528;9.942;2022-11-21T17:27:01;36.38;;;18.05;;